Time;durP1;ratioP1;P1;durP2;ratioP2;P2;SDS_P1;SDS_P2;PMS_P1;PMS_P2;Temp;Humidity;BMP_temperature;BMP_pressure;BME280_temperature;BME280_humidity;BME280_pressure;Samples;Min_cycle;Max_cycle;Signal;HPM_P1;HPM_P2
2023/06/01 00:02:29;;;;;;;5.07;2.95;;;;;;;;;;4998822;28;20034;-69
2023/06/01 00:05:14;;;;;;;7.07;3.40;;;;;;;;;;5010903;28;20070;-69
2023/06/01 00:07:59;;;;;;;6.88;3.65;;;;;;;;;;5009892;28;20030;-68
2023/06/01 00:10:45;;;;;;;6.90;3.60;;;;;;;;;;4998236;28;20327;-62
2023/06/01 00:13:30;;;;;;;5.70;3.13;;;;;;;;;;5008895;28;20515;-64
2023/06/01 00:16:16;;;;;;;8.13;3.75;;;;;;;;;;5023826;28;20037;-63
2023/06/01 00:19:03;;;;;;;7.88;3.70;;;;;;;;;;5015381;28;20057;-60
2023/06/01 00:21:48;;;;;;;5.93;2.78;;;;;;;;;;5008907;28;20142;-61
2023/06/01 00:24:33;;;;;;;10.35;3.33;;;;;;;;;;5006508;28;20038;-69
2023/06/01 00:27:18;;;;;;;5.78;3.28;;;;;;;;;;5008021;28;20040;-63
2023/06/01 00:30:04;;;;;;;10.93;3.45;;;;;;;;;;4997878;28;20037;-61
2023/06/01 00:32:49;;;;;;;6.43;3.20;;;;;;;;;;5012725;28;20025;-61
2023/06/01 00:35:35;;;;;;;7.25;3.47;;;;;;;;;;5015281;28;20245;-60
2023/06/01 00:38:20;;;;;;;6.60;2.95;;;;;;;;;;5014169;28;20021;-60
2023/06/01 00:41:05;;;;;;;6.90;3.00;;;;;;;;;;5007456;28;20495;-59
2023/06/01 00:43:50;;;;;;;7.95;3.30;;;;;;;;;;5001049;28;20041;-68
2023/06/01 00:46:37;;;;;;;8.30;3.45;;;;;;;;;;5014727;28;20120;-64
2023/06/01 00:49:22;;;;;;;4.72;2.92;;;;;;;;;;5015167;28;20125;-65
2023/06/01 00:52:07;;;;;;;7.25;2.78;;;;;;;;;;4996357;28;20061;-63
2023/06/01 00:54:52;;;;;;;10.45;3.10;;;;;;;;;;5006125;28;20022;-63
2023/06/01 00:57:42;;;;;;;8.07;3.63;;;;;;;;;;5011672;28;20033;-62
2023/06/01 01:00:28;;;;;;;5.10;2.90;;;;;;;;;;5012133;28;20060;-61
2023/06/01 01:03:15;;;;;;;7.25;3.22;;;;;;;;;;5009620;28;20029;-70
2023/06/01 01:06:11;;;;;;;8.60;3.45;;;;;;;;;;5002827;28;20112;-62
2023/06/01 01:08:56;;;;;;;6.72;3.72;;;;;;;;;;5014925;28;20177;-62
2023/06/01 01:11:46;;;;;;;7.82;3.50;;;;;;;;;;5002730;28;20034;-62
2023/06/01 01:14:39;;;;;;;8.82;3.67;;;;;;;;;;5024717;28;20033;-63
2023/06/01 01:17:24;;;;;;;5.43;3.25;;;;;;;;;;5006256;28;20030;-62
2023/06/01 01:20:21;;;;;;;7.05;3.40;;;;;;;;;;5014881;28;20025;-69
2023/06/01 01:23:06;;;;;;;8.57;3.50;;;;;;;;;;4998074;28;20095;-62
2023/06/01 01:26:00;;;;;;;6.07;3.10;;;;;;;;;;5013408;28;20029;-63
2023/06/01 01:28:48;;;;;;;6.22;3.38;;;;;;;;;;5011923;28;20041;-63
2023/06/01 01:31:34;;;;;;;5.47;3.10;;;;;;;;;;5014013;28;20041;-63
2023/06/01 01:34:20;;;;;;;6.53;3.15;;;;;;;;;;5011428;28;20026;-63
2023/06/01 01:37:05;;;;;;;8.85;3.40;;;;;;;;;;5014948;28;20507;-64
2023/06/01 01:39:50;;;;;;;8.18;3.28;;;;;;;;;;5014527;28;20037;-71
2023/06/01 01:42:36;;;;;;;8.57;3.60;;;;;;;;;;5023827;28;20041;-69
2023/06/01 01:45:21;;;;;;;7.40;3.35;;;;;;;;;;5023048;28;20106;-69
2023/06/01 01:48:22;;;;;;;5.95;3.08;;;;;;;;;;5013470;28;20281;-69
2023/06/01 01:51:07;;;;;;;;;;;;;;;;;;5002380;28;20037;-69
2023/06/01 01:53:54;;;;;;;9.38;3.35;;;;;;;;;;4997741;28;20018;-69
2023/06/01 01:56:40;;;;;;;7.07;3.55;;;;;;;;;;5015633;28;20499;-58
2023/06/01 01:59:26;;;;;;;6.15;3.15;;;;;;;;;;5018067;28;20040;-66
2023/06/01 02:02:12;;;;;;;7.60;3.85;;;;;;;;;;5001150;28;20040;-66
2023/06/01 02:04:57;;;;;;;7.35;3.33;;;;;;;;;;5005191;28;20044;-65
2023/06/01 02:07:44;;;;;;;5.32;3.10;;;;;;;;;;5011028;28;20496;-67
2023/06/01 02:10:29;;;;;;;5.75;3.15;;;;;;;;;;5014490;28;20136;-65
2023/06/01 02:13:15;;;;;;;9.85;3.70;;;;;;;;;;5001987;28;20072;-67
2023/06/01 02:16:00;;;;;;;10.63;4.32;;;;;;;;;;5023051;28;20429;-68
2023/06/01 02:18:45;;;;;;;8.48;3.55;;;;;;;;;;5006880;28;20037;-69
2023/06/01 02:21:31;;;;;;;6.90;3.10;;;;;;;;;;5026121;28;20055;-69
2023/06/01 02:24:16;;;;;;;6.13;3.17;;;;;;;;;;5013911;28;20029;-68
2023/06/01 02:27:02;;;;;;;6.20;3.13;;;;;;;;;;5004533;28;20067;-69
2023/06/01 02:29:47;;;;;;;10.75;3.65;;;;;;;;;;5029918;28;20037;-67
2023/06/01 02:32:32;;;;;;;7.53;3.50;;;;;;;;;;5025984;28;20040;-68
2023/06/01 02:35:18;;;;;;;7.05;3.70;;;;;;;;;;5009892;28;20029;-68
2023/06/01 02:38:03;;;;;;;6.97;3.92;;;;;;;;;;5013002;28;20064;-69
2023/06/01 02:40:48;;;;;;;8.23;3.22;;;;;;;;;;5014113;28;20137;-68
2023/06/01 02:43:35;;;;;;;6.22;3.38;;;;;;;;;;5001328;28;20607;-69
2023/06/01 02:46:20;;;;;;;10.43;4.00;;;;;;;;;;4993124;28;20045;-69
2023/06/01 02:49:06;;;;;;;8.02;3.20;;;;;;;;;;5004271;28;20017;-69
2023/06/01 02:51:51;;;;;;;7.35;3.08;;;;;;;;;;4992046;28;20586;-69
2023/06/01 02:54:36;;;;;;;8.90;3.50;;;;;;;;;;5023364;28;20115;-69
2023/06/01 02:57:21;;;;;;;8.23;3.08;;;;;;;;;;5011195;28;20037;-68
2023/06/01 03:00:15;;;;;;;6.78;3.58;;;;;;;;;;5016164;28;20475;-68
2023/06/01 03:03:00;;;;;;;6.03;3.17;;;;;;;;;;5022214;28;20029;-68
2023/06/01 03:05:47;;;;;;;8.23;3.38;;;;;;;;;;5014755;28;20365;-69
2023/06/01 03:08:34;;;;;;;6.05;2.88;;;;;;;;;;5014758;28;20033;-68
2023/06/01 03:11:19;;;;;;;6.70;3.13;;;;;;;;;;4997896;28;20022;-62
2023/06/01 03:14:04;;;;;;;7.30;3.30;;;;;;;;;;4994290;28;20381;-69
2023/06/01 03:16:49;;;;;;;5.32;3.10;;;;;;;;;;5010507;28;20064;-68
2023/06/01 03:19:35;;;;;;;6.85;2.90;;;;;;;;;;5025217;28;20037;-70
2023/06/01 03:22:20;;;;;;;7.43;3.70;;;;;;;;;;5011849;28;20406;-68
2023/06/01 03:25:07;;;;;;;7.20;3.58;;;;;;;;;;5022056;28;20068;-70
2023/06/01 03:27:52;;;;;;;6.95;4.05;;;;;;;;;;5007980;28;20553;-69
2023/06/01 03:30:37;;;;;;;8.23;4.43;;;;;;;;;;5008122;28;20037;-60
2023/06/01 03:33:22;;;;;;;11.13;3.58;;;;;;;;;;5017961;28;20067;-65
2023/06/01 03:36:07;;;;;;;5.53;3.35;;;;;;;;;;5011514;28;20037;-60
2023/06/01 03:38:53;;;;;;;10.45;3.45;;;;;;;;;;5022187;28;20475;-63
2023/06/01 03:41:38;;;;;;;7.63;3.50;;;;;;;;;;5026544;28;20025;-60
2023/06/01 03:44:23;;;;;;;5.70;2.90;;;;;;;;;;5023903;28;20033;-63
2023/06/01 03:47:08;;;;;;;5.90;3.35;;;;;;;;;;5008710;28;20021;-62
2023/06/01 03:49:54;;;;;;;5.25;2.78;;;;;;;;;;5005077;28;20034;-69
2023/06/01 03:52:39;;;;;;;7.78;3.30;;;;;;;;;;5009409;28;20364;-68
2023/06/01 03:55:26;;;;;;;7.53;3.20;;;;;;;;;;5029814;28;20768;-69
2023/06/01 03:58:11;;;;;;;10.70;4.53;;;;;;;;;;5016790;28;20029;-68
2023/06/01 04:00:57;;;;;;;9.48;3.88;;;;;;;;;;5008965;28;20029;-68
2023/06/01 04:03:43;;;;;;;6.55;3.75;;;;;;;;;;4990702;28;20030;-69
2023/06/01 04:06:29;;;;;;;9.20;3.30;;;;;;;;;;5006999;28;20041;-71
2023/06/01 04:09:14;;;;;;;7.82;3.63;;;;;;;;;;5013672;28;20068;-70
2023/06/01 04:12:01;;;;;;;7.05;3.08;;;;;;;;;;5014295;28;20095;-68
2023/06/01 04:14:46;;;;;;;4.45;2.80;;;;;;;;;;5012643;28;20039;-69
2023/06/01 04:17:31;;;;;;;5.32;3.35;;;;;;;;;;5006762;28;20485;-69
2023/06/01 04:20:17;;;;;;;4.95;2.72;;;;;;;;;;5014912;28;20076;-70
2023/06/01 04:23:02;;;;;;;4.95;3.40;;;;;;;;;;5015538;28;20029;-68
2023/06/01 04:25:50;;;;;;;6.22;3.67;;;;;;;;;;5022610;28;20072;-62
2023/06/01 04:28:36;;;;;;;8.52;3.17;;;;;;;;;;5016751;28;20033;-63
2023/06/01 04:31:21;;;;;;;11.30;3.80;;;;;;;;;;5025756;28;20043;-62
2023/06/01 04:34:07;;;;;;;8.25;3.35;;;;;;;;;;5035978;28;20036;-66
2023/06/01 04:36:52;;;;;;;14.75;4.97;;;;;;;;;;5014874;28;20029;-64
2023/06/01 04:39:37;;;;;;;13.82;4.90;;;;;;;;;;5019945;28;20025;-63
2023/06/01 04:42:22;;;;;;;6.78;3.40;;;;;;;;;;5008492;28;20041;-70
2023/06/01 04:45:09;;;;;;;12.18;3.90;;;;;;;;;;5005276;28;20108;-67
2023/06/01 04:47:57;;;;;;;8.73;3.90;;;;;;;;;;5012311;28;20109;-67
2023/06/01 04:50:42;;;;;;;8.38;3.25;;;;;;;;;;5010089;28;20396;-68
2023/06/01 04:53:28;;;;;;;10.00;4.05;;;;;;;;;;5004076;28;20037;-67
2023/06/01 04:56:13;;;;;;;7.90;3.83;;;;;;;;;;5008567;28;20083;-67
2023/06/01 04:58:58;;;;;;;7.70;3.88;;;;;;;;;;5020617;28;20372;-66
2023/06/01 05:01:43;;;;;;;9.25;4.15;;;;;;;;;;5009134;28;20396;-69
2023/06/01 05:04:28;;;;;;;6.82;3.30;;;;;;;;;;5016966;28;20116;-70
2023/06/01 05:07:14;;;;;;;6.70;3.63;;;;;;;;;;5010552;28;20069;-70
2023/06/01 05:10:05;;;;;;;6.15;2.85;;;;;;;;;;5012140;28;20121;-71
2023/06/01 05:12:50;;;;;;;8.90;3.08;;;;;;;;;;4994746;28;20538;-72
2023/06/01 05:15:36;;;;;;;6.93;3.25;;;;;;;;;;4995643;28;20106;-73
2023/06/01 05:18:21;;;;;;;5.53;2.75;;;;;;;;;;5006691;28;20266;-76
2023/06/01 05:21:06;;;;;;;5.75;2.95;;;;;;;;;;5018626;28;20400;-72
2023/06/01 05:23:51;;;;;;;6.00;3.38;;;;;;;;;;5028739;28;20040;-74
2023/06/01 05:26:36;;;;;;;7.75;3.42;;;;;;;;;;5019650;28;20029;-73
2023/06/01 05:29:22;;;;;;;6.35;2.90;;;;;;;;;;4997698;28;20369;-74
2023/06/01 05:32:08;;;;;;;7.57;2.90;;;;;;;;;;5014775;28;20053;-73
2023/06/01 05:34:53;;;;;;;11.77;3.22;;;;;;;;;;4998647;28;20377;-75
2023/06/01 05:37:38;;;;;;;10.98;3.25;;;;;;;;;;4995482;28;20025;-75
2023/06/01 05:40:24;;;;;;;7.60;3.60;;;;;;;;;;4992194;28;20029;-80
2023/06/01 05:43:09;;;;;;;6.35;3.30;;;;;;;;;;5008520;28;20356;-81
2023/06/01 05:45:54;;;;;;;6.65;3.38;;;;;;;;;;4999427;28;20521;-79
2023/06/01 05:48:39;;;;;;;5.88;2.70;;;;;;;;;;5008971;28;20029;-79
2023/06/01 05:51:25;;;;;;;8.00;2.95;;;;;;;;;;5022985;28;20138;-78
2023/06/01 05:54:10;;;;;;;7.47;3.03;;;;;;;;;;5010201;28;20044;-78
2023/06/01 05:56:55;;;;;;;8.65;3.10;;;;;;;;;;5008149;28;20037;-74
2023/06/01 05:59:42;;;;;;;5.57;3.13;;;;;;;;;;5006138;28;20029;-74
2023/06/01 06:02:27;;;;;;;9.40;3.67;;;;;;;;;;5012776;28;20055;-75
2023/06/01 06:05:12;;;;;;;9.25;3.53;;;;;;;;;;4999894;28;20471;-74
2023/06/01 06:07:58;;;;;;;7.22;3.22;;;;;;;;;;5012786;28;20036;-71
2023/06/01 06:10:43;;;;;;;10.32;3.47;;;;;;;;;;5012602;28;20136;-73
2023/06/01 06:13:28;;;;;;;6.13;3.20;;;;;;;;;;5015180;28;20480;-75
2023/06/01 06:16:14;;;;;;;6.30;2.88;;;;;;;;;;5010861;28;20051;-74
2023/06/01 06:18:59;;;;;;;7.13;3.67;;;;;;;;;;5010997;28;20024;-71
2023/06/01 06:21:44;;;;;;;7.32;3.47;;;;;;;;;;5008703;28;20111;-71
2023/06/01 06:24:30;;;;;;;6.85;3.60;;;;;;;;;;4992203;28;20021;-71
2023/06/01 06:27:15;;;;;;;9.68;3.33;;;;;;;;;;5020904;28;20399;-70
2023/06/01 06:30:00;;;;;;;12.18;3.60;;;;;;;;;;5009643;28;20041;-70
2023/06/01 06:32:46;;;;;;;17.42;4.60;;;;;;;;;;4994248;28;20025;-72
2023/06/01 06:35:31;;;;;;;11.45;3.78;;;;;;;;;;5012835;28;20236;-74
2023/06/01 06:38:16;;;;;;;8.93;4.03;;;;;;;;;;4988079;28;20401;-73
2023/06/01 06:41:01;;;;;;;7.95;3.97;;;;;;;;;;5015965;28;20049;-75
2023/06/01 06:43:47;;;;;;;9.23;3.65;;;;;;;;;;5007033;28;20033;-73
2023/06/01 06:46:32;;;;;;;9.85;4.43;;;;;;;;;;5010674;28;20060;-74
2023/06/01 06:49:19;;;;;;;7.30;3.50;;;;;;;;;;5012211;28;20584;-73
2023/06/01 06:52:05;;;;;;;10.10;3.22;;;;;;;;;;5010627;28;20037;-74
2023/06/01 06:54:50;;;;;;;9.05;4.15;;;;;;;;;;5008963;28;20422;-74
2023/06/01 06:57:35;;;;;;;9.20;4.05;;;;;;;;;;4998104;28;20488;-73
2023/06/01 07:00:21;;;;;;;8.27;4.28;;;;;;;;;;5005831;28;20069;-74
2023/06/01 07:03:06;;;;;;;8.30;2.88;;;;;;;;;;5004514;28;20033;-76
2023/06/01 07:05:51;;;;;;;9.07;3.50;;;;;;;;;;5012470;28;20040;-75
2023/06/01 07:08:38;;;;;;;6.43;3.28;;;;;;;;;;4993253;28;20068;-81
2023/06/01 07:11:24;;;;;;;8.25;3.78;;;;;;;;;;5007737;28;20107;-73
2023/06/01 07:14:09;;;;;;;9.82;3.55;;;;;;;;;;5006027;28;20048;-74
2023/06/01 07:16:54;;;;;;;8.18;3.72;;;;;;;;;;4991073;28;20048;-73
2023/06/01 07:19:39;;;;;;;11.38;4.03;;;;;;;;;;4993562;28;20036;-70
2023/06/01 07:22:25;;;;;;;8.10;3.63;;;;;;;;;;5002664;28;20025;-71
2023/06/01 07:25:12;;;;;;;8.40;4.45;;;;;;;;;;5006003;28;20047;-70
2023/06/01 07:27:58;;;;;;;7.70;3.67;;;;;;;;;;5009952;28;20057;-86
2023/06/01 07:30:43;;;;;;;9.15;3.63;;;;;;;;;;5011092;28;20041;-72
2023/06/01 07:33:28;;;;;;;9.23;3.88;;;;;;;;;;4994378;28;20049;-70
2023/06/01 07:36:16;;;;;;;9.38;3.40;;;;;;;;;;5015725;28;20033;-73
2023/06/01 07:39:06;;;;;;;9.10;3.42;;;;;;;;;;5001912;28;20087;-73
2023/06/01 07:41:53;;;;;;;11.23;3.70;;;;;;;;;;5009995;28;20588;-73
2023/06/01 07:44:38;;;;;;;7.82;4.32;;;;;;;;;;5017396;28;20025;-73
2023/06/01 07:47:25;;;;;;;8.68;3.60;;;;;;;;;;5011459;28;20040;-76
2023/06/01 07:50:10;;;;;;;15.20;4.05;;;;;;;;;;5012409;28;20045;-79
2023/06/01 07:52:55;;;;;;;7.72;3.40;;;;;;;;;;4996807;28;20029;-77
2023/06/01 07:55:40;;;;;;;10.23;3.75;;;;;;;;;;5012295;28;20032;-79
2023/06/01 07:58:26;;;;;;;9.98;4.30;;;;;;;;;;4995412;28;20233;-77
2023/06/01 08:01:11;;;;;;;10.00;4.00;;;;;;;;;;4992171;28;20473;-80
2023/06/01 08:03:56;;;;;;;6.97;3.20;;;;;;;;;;5011674;28;20048;-78
2023/06/01 08:06:43;;;;;;;9.07;3.58;;;;;;;;;;4998976;28;20029;-72
2023/06/01 08:09:37;;;;;;;9.40;3.70;;;;;;;;;;4990279;28;20481;-78
2023/06/01 08:12:22;;;;;;;8.73;3.67;;;;;;;;;;5002812;28;20419;-78
2023/06/01 08:15:08;;;;;;;8.60;4.30;;;;;;;;;;5017907;28;20164;-78
2023/06/01 08:17:54;;;;;;;7.60;3.80;;;;;;;;;;5002396;28;20017;-78
2023/06/01 08:20:39;;;;;;;13.55;3.88;;;;;;;;;;5008988;28;20052;-82
2023/06/01 08:23:25;;;;;;;7.22;3.95;;;;;;;;;;5012215;28;20030;-75
2023/06/01 08:26:10;;;;;;;8.50;3.75;;;;;;;;;;5010096;28;20519;-69
2023/06/01 08:28:55;;;;;;;9.40;3.88;;;;;;;;;;5008138;28;20021;-71
2023/06/01 08:31:40;;;;;;;8.20;4.13;;;;;;;;;;4994580;28;20061;-69
2023/06/01 08:34:26;;;;;;;10.68;4.78;;;;;;;;;;5019134;28;20084;-69
2023/06/01 08:37:11;;;;;;;8.68;3.78;;;;;;;;;;5008374;28;20436;-71
2023/06/01 08:39:56;;;;;;;9.65;4.43;;;;;;;;;;5005973;28;20041;-69
2023/06/01 08:42:45;;;;;;;7.82;3.70;;;;;;;;;;4994141;28;20057;-68
2023/06/01 08:45:31;;;;;;;6.80;4.07;;;;;;;;;;5001202;28;20021;-76
2023/06/01 08:48:17;;;;;;;12.40;4.55;;;;;;;;;;5011411;28;20046;-75
2023/06/01 08:51:03;;;;;;;12.65;4.55;;;;;;;;;;5003729;28;20030;-75
2023/06/01 08:53:49;;;;;;;8.27;4.10;;;;;;;;;;5011654;28;20033;-74
2023/06/01 08:56:34;;;;;;;8.32;3.90;;;;;;;;;;5011790;28;20499;-74
2023/06/01 08:59:19;;;;;;;8.70;4.30;;;;;;;;;;4994793;28;20056;-72
2023/06/01 09:02:05;;;;;;;11.07;4.10;;;;;;;;;;4997327;28;20037;-75
2023/06/01 09:04:50;;;;;;;9.40;4.15;;;;;;;;;;4997015;28;20165;-78
2023/06/01 09:07:36;;;;;;;11.32;4.07;;;;;;;;;;5009672;28;20104;-76
2023/06/01 09:10:27;;;;;;;8.05;4.07;;;;;;;;;;5010800;28;20030;-84
2023/06/01 09:13:12;;;;;;;9.18;3.75;;;;;;;;;;4998642;28;20040;-78
2023/06/01 09:15:57;;;;;;;9.55;4.82;;;;;;;;;;5003980;28;20036;-77
2023/06/01 09:18:53;;;;;;;9.20;4.22;;;;;;;;;;4992946;28;20064;-76
2023/06/01 09:21:38;;;;;;;8.68;4.82;;;;;;;;;;5011407;28;20037;-80
2023/06/01 09:24:23;;;;;;;7.78;4.13;;;;;;;;;;4995715;28;20116;-83
2023/06/01 09:27:09;;;;;;;7.63;4.55;;;;;;;;;;5017100;28;20044;-76
2023/06/01 09:29:55;;;;;;;9.32;4.13;;;;;;;;;;5011274;28;20047;-76
2023/06/01 09:32:41;;;;;;;7.65;3.90;;;;;;;;;;5015763;28;20504;-76
2023/06/01 09:35:47;;;;;;;10.50;3.90;;;;;;;;;;5008527;28;20025;-82
2023/06/01 09:38:32;;;;;;;9.55;4.03;;;;;;;;;;4997321;28;20084;-75
2023/06/01 09:41:17;;;;;;;11.18;4.28;;;;;;;;;;5014193;28;20025;-84
2023/06/01 09:44:02;;;;;;;9.40;4.50;;;;;;;;;;5015024;28;20643;-82
2023/06/01 09:47:12;;;;;;;8.55;4.65;;;;;;;;;;5011683;28;20084;-80
2023/06/01 09:50:03;;;;;;;5.95;3.88;;;;;;;;;;5010811;28;20482;-79
2023/06/01 09:52:57;;;;;;;9.40;4.55;;;;;;;;;;5000914;28;20530;-79
2023/06/01 09:56:01;;;;;;;9.95;4.13;;;;;;;;;;5007810;28;20033;-73
2023/06/01 09:58:49;;;;;;;7.95;4.38;;;;;;;;;;5011865;28;20329;-77
2023/06/01 10:01:34;;;;;;;9.85;4.50;;;;;;;;;;5010345;28;20034;-76
2023/06/01 10:04:21;;;;;;;18.05;5.88;;;;;;;;;;5010542;28;20025;-77
2023/06/01 10:07:07;;;;;;;7.80;4.30;;;;;;;;;;5006402;28;20075;-77
2023/06/01 10:09:54;;;;;;;8.07;4.47;;;;;;;;;;5024080;28;20156;-75
2023/06/01 10:12:40;;;;;;;8.50;5.07;;;;;;;;;;5017538;28;20506;-69
2023/06/01 10:15:25;;;;;;;6.65;3.60;;;;;;;;;;4996259;28;20384;-69
2023/06/01 10:18:10;;;;;;;5.85;3.22;;;;;;;;;;5005043;28;20037;-68
2023/06/01 10:20:56;;;;;;;7.35;4.18;;;;;;;;;;4981079;28;20026;-69
2023/06/01 10:23:42;;;;;;;6.82;3.30;;;;;;;;;;5019379;28;20032;-69
2023/06/01 10:26:28;;;;;;;4.80;3.10;;;;;;;;;;5017680;28;20052;-69
2023/06/01 10:29:16;;;;;;;11.10;4.03;;;;;;;;;;5014678;28;20126;-70
2023/06/01 10:32:02;;;;;;;6.10;3.45;;;;;;;;;;4997642;28;20119;-71
2023/06/01 10:34:47;;;;;;;8.65;3.85;;;;;;;;;;4989347;28;20033;-67
2023/06/01 10:37:33;;;;;;;5.65;3.35;;;;;;;;;;5004801;28;20041;-69
2023/06/01 10:40:18;;;;;;;11.25;4.65;;;;;;;;;;5004920;28;20059;-69
2023/06/01 10:43:03;;;;;;;7.35;3.38;;;;;;;;;;5008669;28;20485;-66
2023/06/01 10:45:48;;;;;;;6.03;3.70;;;;;;;;;;5012162;28;20033;-69
2023/06/01 10:48:54;;;;;;;6.18;3.63;;;;;;;;;;5009639;28;20534;-63
2023/06/01 10:51:39;;;;;;;6.68;3.97;;;;;;;;;;5008588;28;20124;-67
2023/06/01 10:54:29;;;;;;;11.70;3.55;;;;;;;;;;5011389;28;20083;-66
2023/06/01 10:57:14;;;;;;;;;;;;;;;;;;5012885;28;20483;-70
2023/06/01 11:00:13;;;;;;;5.72;3.53;;;;;;;;;;5009277;28;19915;-71
2023/06/01 11:02:59;;;;;;;4.38;3.53;;;;;;;;;;5008623;28;20486;-66
2023/06/01 11:05:46;;;;;;;6.03;3.65;;;;;;;;;;5013081;28;20025;-67
2023/06/01 11:08:32;;;;;;;4.53;3.38;;;;;;;;;;5008806;28;20036;-66
2023/06/01 11:11:20;;;;;;;7.40;4.18;;;;;;;;;;5015435;28;20033;-70
2023/06/01 11:14:06;;;;;;;9.00;3.97;;;;;;;;;;5004511;28;20061;-69
2023/06/01 11:16:52;;;;;;;6.28;3.92;;;;;;;;;;5015566;28;20311;-76
2023/06/01 11:19:40;;;;;;;9.20;4.47;;;;;;;;;;5008610;28;20056;-72
2023/06/01 11:22:27;;;;;;;8.82;4.15;;;;;;;;;;5010094;28;20028;-72
2023/06/01 11:25:13;;;;;;;10.15;4.93;;;;;;;;;;5005913;28;20535;-71
2023/06/01 11:27:58;;;;;;;9.70;4.25;;;;;;;;;;5011955;28;20025;-65
2023/06/01 11:30:44;;;;;;;13.55;4.80;;;;;;;;;;5015343;28;20485;-67
2023/06/01 11:33:33;;;;;;;5.72;3.70;;;;;;;;;;5014569;28;20022;-77
2023/06/01 11:36:20;;;;;;;6.95;4.45;;;;;;;;;;4996583;28;20029;-69
2023/06/01 11:39:07;;;;;;;8.48;4.47;;;;;;;;;;5015479;28;20030;-67
2023/06/01 11:42:06;;;;;;;8.48;4.05;;;;;;;;;;5017213;28;20033;-68
2023/06/01 11:44:58;;;;;;;7.15;3.95;;;;;;;;;;5015588;28;20159;-69
2023/06/01 11:47:45;;;;;;;7.57;4.38;;;;;;;;;;5011821;28;20120;-68
2023/06/01 11:50:31;;;;;;;7.20;4.07;;;;;;;;;;5014173;28;20488;-69
2023/06/01 11:53:17;;;;;;;13.35;4.43;;;;;;;;;;5017886;28;20064;-68
2023/06/01 11:56:02;;;;;;;5.63;3.67;;;;;;;;;;5015712;28;20404;-67
2023/06/01 11:58:48;;;;;;;10.25;5.15;;;;;;;;;;5012669;28;20072;-69
2023/06/01 12:01:34;;;;;;;9.20;3.97;;;;;;;;;;5018945;28;20040;-81
2023/06/01 12:04:21;;;;;;;12.02;5.20;;;;;;;;;;4997990;28;20124;-65
2023/06/01 12:07:07;;;;;;;9.20;4.50;;;;;;;;;;5010686;28;20037;-66
2023/06/01 12:09:56;;;;;;;12.75;4.32;;;;;;;;;;5008220;28;20044;-66
2023/06/01 12:12:43;;;;;;;6.97;4.25;;;;;;;;;;5016911;28;20061;-62
2023/06/01 12:15:28;;;;;;;11.10;4.60;;;;;;;;;;5011462;28;20055;-64
2023/06/01 12:18:13;;;;;;;20.92;4.70;;;;;;;;;;5015345;28;20049;-64
2023/06/01 12:20:58;;;;;;;7.75;3.88;;;;;;;;;;5008723;28;20125;-60
2023/06/01 12:23:53;;;;;;;9.45;4.43;;;;;;;;;;5008613;28;20029;-63
2023/06/01 12:26:39;;;;;;;8.57;4.25;;;;;;;;;;5017553;28;20104;-72
2023/06/01 12:29:43;;;;;;;9.95;4.18;;;;;;;;;;5001246;28;20427;-69
2023/06/01 12:32:38;;;;;;;6.57;4.10;;;;;;;;;;5017986;28;20062;-68
2023/06/01 12:35:23;;;;;;;7.28;4.57;;;;;;;;;;5017105;28;20022;-70
2023/06/01 12:38:12;;;;;;;7.63;4.47;;;;;;;;;;5009170;28;20033;-66
2023/06/01 12:40:57;;;;;;;;;;;;;;;;;;5008703;28;20029;-67
2023/06/01 12:43:46;;;;;;;7.28;3.75;;;;;;;;;;5014593;28;20268;-69
2023/06/01 12:46:33;;;;;;;5.57;4.03;;;;;;;;;;5010914;28;20051;-67
2023/06/01 12:49:18;;;;;;;8.25;4.30;;;;;;;;;;5016961;28;20033;-65
2023/06/01 12:52:04;;;;;;;8.02;4.25;;;;;;;;;;5015792;28;20490;-67
2023/06/01 12:54:50;;;;;;;8.20;3.80;;;;;;;;;;5002210;28;20033;-68
2023/06/01 12:57:37;;;;;;;8.20;4.22;;;;;;;;;;5006758;28;20073;-68
2023/06/01 13:00:23;;;;;;;8.90;4.90;;;;;;;;;;5017550;28;20450;-67
2023/06/01 13:03:08;;;;;;;9.38;4.10;;;;;;;;;;5014277;28;20128;-65
2023/06/01 13:05:53;;;;;;;12.05;4.35;;;;;;;;;;5013144;28;20030;-69
2023/06/01 13:08:38;;;;;;;8.40;4.00;;;;;;;;;;5011282;28;20033;-68
2023/06/01 13:11:24;;;;;;;8.32;4.40;;;;;;;;;;5008091;28;20155;-70
2023/06/01 13:14:10;;;;;;;8.55;4.38;;;;;;;;;;5013596;28;20425;-68
2023/06/01 13:16:55;;;;;;;7.63;3.97;;;;;;;;;;5009011;28;20033;-67
2023/06/01 13:19:41;;;;;;;6.70;4.30;;;;;;;;;;5020942;28;20368;-67
2023/06/01 13:22:26;;;;;;;7.05;3.83;;;;;;;;;;5011959;28;20084;-72
2023/06/01 13:25:11;;;;;;;9.32;4.22;;;;;;;;;;5011568;28;20577;-74
2023/06/01 13:27:57;;;;;;;7.97;4.10;;;;;;;;;;5013815;28;20017;-74
2023/06/01 13:30:42;;;;;;;7.25;4.55;;;;;;;;;;4996944;28;20037;-69
2023/06/01 13:33:27;;;;;;;7.38;4.10;;;;;;;;;;5012577;28;20153;-72
2023/06/01 13:36:12;;;;;;;6.65;3.85;;;;;;;;;;5009234;28;20065;-67
2023/06/01 13:38:58;;;;;;;10.15;3.95;;;;;;;;;;5008603;28;20030;-68
2023/06/01 13:41:43;;;;;;;8.57;3.97;;;;;;;;;;5011527;28;20032;-67
2023/06/01 13:44:28;;;;;;;5.97;3.90;;;;;;;;;;5016221;28;20033;-69
2023/06/01 13:47:16;;;;;;;7.63;4.60;;;;;;;;;;5012777;28;20103;-69
2023/06/01 13:50:02;;;;;;;7.50;4.13;;;;;;;;;;5008143;28;20085;-72
2023/06/01 13:52:47;;;;;;;5.47;3.15;;;;;;;;;;5007304;28;20037;-66
2023/06/01 13:55:34;;;;;;;8.32;4.55;;;;;;;;;;5010845;28;20116;-66
2023/06/01 13:58:19;;;;;;;5.20;3.42;;;;;;;;;;5013792;28;20084;-76
2023/06/01 14:01:05;;;;;;;10.98;4.40;;;;;;;;;;5014618;28;20064;-77
2023/06/01 14:03:50;;;;;;;8.43;4.10;;;;;;;;;;5013891;28;20213;-70
2023/06/01 14:06:36;;;;;;;7.72;3.83;;;;;;;;;;4996372;28;20373;-75
2023/06/01 14:09:21;;;;;;;9.63;4.13;;;;;;;;;;5018089;28;20037;-74
2023/06/01 14:12:07;;;;;;;8.45;4.15;;;;;;;;;;5009422;28;20044;-69
2023/06/01 14:14:52;;;;;;;8.38;4.63;;;;;;;;;;5007414;28;20029;-70
2023/06/01 14:17:37;;;;;;;8.13;3.72;;;;;;;;;;4995570;28;20171;-70
2023/06/01 14:20:23;;;;;;;5.75;3.65;;;;;;;;;;5011887;28;20044;-71
2023/06/01 14:23:09;;;;;;;5.88;3.30;;;;;;;;;;5010750;28;20037;-76
2023/06/01 14:25:55;;;;;;;8.02;4.35;;;;;;;;;;5011244;28;20556;-70
2023/06/01 14:28:40;;;;;;;7.88;3.55;;;;;;;;;;5010997;28;20032;-76
2023/06/01 14:31:25;;;;;;;6.75;3.55;;;;;;;;;;5025006;28;20033;-71
2023/06/01 14:34:11;;;;;;;8.38;3.75;;;;;;;;;;4997636;28;20077;-69
2023/06/01 14:36:56;;;;;;;7.82;3.35;;;;;;;;;;5009895;28;20474;-72
2023/06/01 14:39:41;;;;;;;7.88;3.22;;;;;;;;;;5006770;28;20131;-73
2023/06/01 14:42:26;;;;;;;7.13;2.92;;;;;;;;;;4998315;28;20053;-72
2023/06/01 14:45:12;;;;;;;6.88;3.05;;;;;;;;;;5013278;28;20025;-72
2023/06/01 14:47:57;;;;;;;3.88;2.53;;;;;;;;;;5011323;28;20502;-72
2023/06/01 14:50:42;;;;;;;5.65;2.95;;;;;;;;;;5010679;28;20183;-71
2023/06/01 14:53:28;;;;;;;6.97;2.60;;;;;;;;;;5013414;28;20033;-69
2023/06/01 14:56:14;;;;;;;5.30;3.10;;;;;;;;;;5013813;28;20096;-71
2023/06/01 14:58:59;;;;;;;4.38;2.65;;;;;;;;;;5012268;28;20518;-68
2023/06/01 15:01:45;;;;;;;6.00;2.65;;;;;;;;;;5005101;28;20034;-68
2023/06/01 15:04:30;;;;;;;6.32;3.30;;;;;;;;;;5015973;28;20107;-68
2023/06/01 15:07:15;;;;;;;7.90;2.58;;;;;;;;;;5018027;28;20394;-74
2023/06/01 15:10:01;;;;;;;5.00;3.08;;;;;;;;;;5011258;28;20033;-70
2023/06/01 15:12:46;;;;;;;3.65;2.65;;;;;;;;;;5017735;28;20420;-76
2023/06/01 15:15:31;;;;;;;6.07;2.90;;;;;;;;;;4995208;28;20029;-78
2023/06/01 15:18:17;;;;;;;7.50;2.72;;;;;;;;;;5012267;28;20077;-79
2023/06/01 15:21:02;;;;;;;7.28;2.47;;;;;;;;;;5020065;28;20370;-75
2023/06/01 15:23:47;;;;;;;6.55;2.50;;;;;;;;;;5013414;28;20041;-77
2023/06/01 15:26:33;;;;;;;6.78;2.50;;;;;;;;;;5002465;28;20381;-70
2023/06/01 15:29:18;;;;;;;8.65;2.65;;;;;;;;;;4994272;28;20094;-73
2023/06/01 15:32:04;;;;;;;4.63;2.25;;;;;;;;;;5017819;28;20041;-71
2023/06/01 15:34:49;;;;;;;4.03;2.50;;;;;;;;;;5014043;28;20041;-70
2023/06/01 15:37:34;;;;;;;5.55;2.20;;;;;;;;;;5013966;28;20025;-70
2023/06/01 15:40:20;;;;;;;7.22;2.35;;;;;;;;;;5013235;28;20400;-74
2023/06/01 15:43:05;;;;;;;4.95;2.72;;;;;;;;;;5016487;28;20029;-75
2023/06/01 15:45:50;;;;;;;11.23;3.42;;;;;;;;;;5018295;28;20025;-69
2023/06/01 15:48:39;;;;;;;9.50;3.75;;;;;;;;;;5010871;28;20102;-70
2023/06/01 15:51:25;;;;;;;8.07;3.77;;;;;;;;;;5007799;28;20525;-71
2023/06/01 15:54:10;;;;;;;6.78;2.78;;;;;;;;;;5009751;28;21330;-67
2023/06/01 15:56:55;;;;;;;4.75;2.20;;;;;;;;;;5016789;28;20021;-72
2023/06/01 15:59:40;;;;;;;10.77;3.28;;;;;;;;;;4999675;28;20053;-71
2023/06/01 16:02:26;;;;;;;5.50;2.45;;;;;;;;;;5016609;28;20030;-72
2023/06/01 16:05:11;;;;;;;8.73;2.78;;;;;;;;;;5007236;28;20033;-69
2023/06/01 16:07:56;;;;;;;6.15;2.42;;;;;;;;;;5027131;28;20701;-69
2023/06/01 16:10:42;;;;;;;5.68;2.10;;;;;;;;;;5010668;28;20057;-65
2023/06/01 16:13:27;;;;;;;7.20;2.72;;;;;;;;;;5009062;28;20591;-66
2023/06/01 16:16:12;;;;;;;5.30;2.53;;;;;;;;;;5006441;28;20025;-61
2023/06/01 16:18:57;;;;;;;4.78;2.30;;;;;;;;;;5010184;28;20037;-66
2023/06/01 16:21:43;;;;;;;6.55;2.42;;;;;;;;;;5017643;28;20029;-71
2023/06/01 16:24:28;;;;;;;5.00;2.20;;;;;;;;;;5010268;28;20037;-71
2023/06/01 16:27:14;;;;;;;5.05;2.50;;;;;;;;;;5010025;28;20061;-71
2023/06/01 16:29:59;;;;;;;6.00;2.92;;;;;;;;;;5004674;28;20588;-70
2023/06/01 16:32:44;;;;;;;5.82;2.10;;;;;;;;;;5010334;28;20156;-71
2023/06/01 16:35:29;;;;;;;3.92;2.47;;;;;;;;;;5008514;28;20045;-70
2023/06/01 16:38:15;;;;;;;4.88;1.77;;;;;;;;;;5003340;28;20110;-69